Time;durP1;ratioP1;P1;durP2;ratioP2;P2;SDS_P1;SDS_P2;PMS_P1;PMS_P2;Temp;Humidity;BMP_temperature;BMP_pressure;BME280_temperature;BME280_humidity;BME280_pressure;Samples;Min_cycle;Max_cycle;Signal;HPM_P1;HPM_P2
2022/05/21 00:00:58;;;;;;;21.38;10.45;;;20.90;99.90;;;;;;5071305;28;20060;-68
2022/05/21 00:03:23;;;;;;;20.20;10.23;;;20.90;99.90;;;;;;5072296;28;20036;-68
2022/05/21 00:05:49;;;;;;;18.38;10.73;;;20.90;99.90;;;;;;5072542;28;20043;-68
2022/05/21 00:08:15;;;;;;;21.95;11.88;;;20.60;99.90;;;;;;5072701;28;20103;-69
2022/05/21 00:10:41;;;;;;;16.13;9.57;;;20.50;99.90;;;;;;5072611;28;20508;-68
2022/05/21 00:13:07;;;;;;;22.38;10.80;;;20.40;99.90;;;;;;5072767;28;20036;-68
2022/05/21 00:15:35;;;;;;;17.77;10.18;;;20.50;99.90;;;;;;5072707;28;20049;-68
2022/05/21 00:18:01;;;;;;;16.40;9.77;;;20.60;99.90;;;;;;5072412;28;20052;-68
2022/05/21 00:23:24;;;;;;;17.17;9.45;;;20.80;99.90;;;;;;5072532;28;20083;-68
2022/05/21 00:26:04;;;;;;;19.85;9.85;;;21.00;99.90;;;;;;5074849;28;20503;-68
2022/05/21 00:28:31;;;;;;;12.52;8.25;;;21.10;99.90;;;;;;5076458;28;20415;-68
2022/05/21 00:30:57;;;;;;;22.52;11.38;;;21.00;99.90;;;;;;5076455;28;20055;-68
2022/05/21 00:33:24;;;;;;;16.05;9.85;;;21.10;99.90;;;;;;5076163;28;20117;-68
2022/05/21 00:35:51;;;;;;;18.63;10.27;;;21.20;99.90;;;;;;5076303;28;20078;-68
2022/05/21 00:38:17;;;;;;;21.17;9.52;;;20.70;99.90;;;;;;5076129;28;20056;-68
2022/05/21 00:40:44;;;;;;;27.95;9.85;;;20.40;99.90;;;;;;5076153;28;20496;-68
2022/05/21 00:43:44;;;;;;;19.15;9.32;;;20.40;99.90;;;;;;5072497;28;20090;-68
2022/05/21 00:46:20;;;;;;;20.05;9.80;;;20.70;99.90;;;;;;5054308;28;20116;-69
2022/05/21 00:48:51;;;;;;;16.25;10.13;;;20.60;99.90;;;;;;5055560;28;20409;-69
2022/05/21 00:51:21;;;;;;;18.58;10.13;;;20.30;99.90;;;;;;5055820;28;20079;-69
2022/05/21 00:53:50;;;;;;;18.27;10.50;;;20.20;99.90;;;;;;5055710;28;20048;-69
2022/05/21 00:56:18;;;;;;;16.48;9.77;;;20.20;99.90;;;;;;5055711;28;20033;-69
2022/05/21 01:01:34;;;;;;;19.08;10.32;;;20.50;99.90;;;;;;5055710;28;20119;-68
2022/05/21 01:04:00;;;;;;;16.25;10.45;;;20.50;99.90;;;;;;5054390;28;20468;-68
2022/05/21 01:06:26;;;;;;;16.65;10.65;;;20.60;99.90;;;;;;5068974;28;20068;-69
2022/05/21 01:08:51;;;;;;;17.25;9.90;;;20.40;99.90;;;;;;5075705;28;20056;-69
2022/05/21 01:11:19;;;;;;;21.45;10.18;;;20.20;99.90;;;;;;5075891;28;20052;-69
2022/05/21 01:13:48;;;;;;;19.92;10.90;;;20.00;99.90;;;;;;5075686;28;20064;-68
2022/05/21 01:16:15;;;;;;;17.63;10.82;;;20.00;99.90;;;;;;5075624;28;20046;-68
2022/05/21 01:18:41;;;;;;;21.25;10.90;;;20.00;99.90;;;;;;5075767;28;20037;-68
2022/05/21 01:21:07;;;;;;;19.55;10.50;;;20.10;99.90;;;;;;5075221;28;20059;-68
2022/05/21 01:23:33;;;;;;;18.48;10.23;;;20.00;99.90;;;;;;5075388;28;20059;-68
2022/05/21 01:26:01;;;;;;;20.02;9.90;;;20.00;99.90;;;;;;5075384;28;20033;-68
2022/05/21 01:28:32;;;;;;;18.13;9.45;;;19.80;99.90;;;;;;5075348;28;20032;-68
2022/05/21 01:31:01;;;;;;;25.90;10.68;;;19.80;99.90;;;;;;5075063;28;20052;-67
2022/05/21 01:33:30;;;;;;;20.38;10.68;;;19.70;99.90;;;;;;5075249;28;20032;-68
2022/05/21 01:36:00;;;;;;;19.67;9.85;;;19.80;99.90;;;;;;5074967;28;20102;-67
2022/05/21 01:38:28;;;;;;;19.67;9.82;;;19.80;99.90;;;;;;5075200;28;20045;-68
2022/05/21 01:40:54;;;;;;;22.50;10.32;;;19.70;99.90;;;;;;5075188;28;20036;-68
2022/05/21 01:46:05;;;;;;;17.10;9.60;;;19.70;99.90;;;;;;5074904;28;20116;-67
2022/05/21 01:48:32;;;;;;;18.15;10.73;;;19.70;99.90;;;;;;5074513;28;20052;-68
2022/05/21 01:50:59;;;;;;;14.45;9.73;;;19.70;99.90;;;;;;5074495;28;20048;-67
2022/05/21 01:53:26;;;;;;;18.80;9.65;;;19.80;99.90;;;;;;5074005;28;20043;-67
2022/05/21 01:55:53;;;;;;;16.67;9.45;;;19.70;99.90;;;;;;5073617;28;20033;-67
2022/05/21 01:58:20;;;;;;;18.60;10.15;;;19.60;99.90;;;;;;5074451;28;20048;-68
2022/05/21 02:00:46;;;;;;;26.85;10.93;;;19.50;99.90;;;;;;5073569;28;20446;-67
2022/05/21 02:03:13;;;;;;;19.75;12.07;;;19.70;99.90;;;;;;5074586;28;20072;-67
2022/05/21 02:05:40;;;;;;;22.17;11.38;;;20.10;99.90;;;;;;5074537;28;20067;-68
2022/05/21 02:08:06;;;;;;;23.08;12.68;;;20.20;99.90;;;;;;5074492;28;20045;-67
2022/05/21 02:10:33;;;;;;;23.33;11.85;;;20.30;99.90;;;;;;5074327;28;20043;-68
2022/05/21 02:13:02;;;;;;;17.15;11.35;;;20.40;99.90;;;;;;5074262;28;20050;-67
2022/05/21 02:15:28;;;;;;;21.60;11.68;;;20.10;99.90;;;;;;5074338;28;20080;-67
2022/05/21 02:17:54;;;;;;;19.15;11.57;;;19.70;99.90;;;;;;5074424;28;20056;-67
2022/05/21 02:20:20;;;;;;;18.88;10.57;;;19.50;99.90;;;;;;5074285;28;20090;-67
2022/05/21 02:22:45;;;;;;;21.58;9.90;;;19.30;99.90;;;;;;5074142;28;20130;-67
2022/05/21 02:25:14;;;;;;;19.30;10.88;;;19.00;99.90;;;;;;5074161;28;20413;-68
2022/05/21 02:27:41;;;;;;;22.00;11.43;;;18.90;99.90;;;;;;5074334;28;20048;-67
2022/05/21 02:30:07;;;;;;;18.15;11.82;;;18.90;99.90;;;;;;5074154;28;20048;-67
2022/05/21 02:32:33;;;;;;;15.05;10.40;;;18.90;99.90;;;;;;5073896;28;20048;-67
2022/05/21 02:34:58;;;;;;;18.33;11.90;;;18.80;99.90;;;;;;5074005;28;20032;-67
2022/05/21 02:40:09;;;;;;;20.13;12.25;;;19.00;99.90;;;;;;5074092;28;20098;-67
2022/05/21 02:42:44;;;;;;;25.65;12.98;;;19.30;99.90;;;;;;5073902;28;20130;-67
2022/05/21 02:45:21;;;;;;;26.20;13.13;;;19.50;99.90;;;;;;5073811;28;20052;-67
2022/05/21 02:47:48;;;;;;;25.67;13.27;;;19.70;99.90;;;;;;5072946;28;20068;-67
2022/05/21 02:50:16;;;;;;;19.98;12.10;;;19.80;99.90;;;;;;5073749;28;20047;-67
2022/05/21 02:52:42;;;;;;;19.08;11.32;;;19.80;99.90;;;;;;5073457;28;20044;-67
2022/05/21 02:55:10;;;;;;;23.20;11.35;;;19.80;99.90;;;;;;5073619;28;20040;-67
2022/05/21 02:57:36;;;;;;;19.10;12.50;;;19.90;99.90;;;;;;5073538;28;20165;-67
2022/05/21 03:00:08;;;;;;;24.60;11.63;;;20.00;99.90;;;;;;5073261;28;20113;-67
2022/05/21 03:02:33;;;;;;;24.33;11.73;;;19.80;99.90;;;;;;5073351;28;20051;-67
2022/05/21 03:04:59;;;;;;;19.60;11.40;;;19.40;99.90;;;;;;5073544;28;20040;-67
2022/05/21 03:07:25;;;;;;;21.98;11.48;;;19.40;99.90;;;;;;5073541;28;20044;-67
2022/05/21 03:12:35;;;;;;;18.50;11.93;;;19.50;99.90;;;;;;5073168;28;20097;-67
2022/05/21 03:15:01;;;;;;;17.70;11.57;;;19.60;99.90;;;;;;5072632;28;21654;-68
2022/05/21 03:17:28;;;;;;;24.88;12.52;;;19.80;99.90;;;;;;5072837;28;20131;-67
2022/05/21 03:19:54;;;;;;;24.00;12.70;;;20.00;99.90;;;;;;5073093;28;20036;-67
2022/05/21 03:22:19;;;;;;;18.20;12.57;;;20.00;99.90;;;;;;5073304;28;20044;-67
2022/05/21 03:24:45;;;;;;;15.35;12.35;;;20.10;99.90;;;;;;5073429;28;20041;-67
2022/05/21 03:27:11;;;;;;;25.85;14.43;;;19.90;99.90;;;;;;5072712;28;20135;-67
2022/05/21 03:29:37;;;;;;;22.60;13.45;;;19.60;99.90;;;;;;5072819;28;20048;-67
2022/05/21 03:32:04;;;;;;;25.42;14.95;;;19.40;99.90;;;;;;5073265;28;20067;-67
2022/05/21 03:34:30;;;;;;;21.75;14.52;;;18.90;99.90;;;;;;5073114;28;20107;-67
2022/05/21 03:36:56;;;;;;;26.52;14.23;;;18.90;99.90;;;;;;5072725;28;20055;-67
2022/05/21 03:39:23;;;;;;;21.45;14.50;;;18.70;99.90;;;;;;5072857;28;20051;-67
2022/05/21 03:41:49;;;;;;;26.33;14.52;;;18.70;99.90;;;;;;5073032;28;20040;-67
2022/05/21 03:44:15;;;;;;;24.52;14.48;;;18.70;99.90;;;;;;5072865;28;20048;-67
2022/05/21 03:46:41;;;;;;;27.20;14.25;;;18.70;99.90;;;;;;5072984;28;20036;-67
2022/05/21 03:49:06;;;;;;;23.95;14.05;;;18.60;99.90;;;;;;5072871;28;20048;-67
2022/05/21 03:51:33;;;;;;;27.17;13.15;;;18.40;99.90;;;;;;5072780;28;20036;-67
2022/05/21 03:53:58;;;;;;;21.23;13.55;;;18.50;99.90;;;;;;5072922;28;20464;-67
2022/05/21 03:56:24;;;;;;;21.50;13.38;;;18.40;99.90;;;;;;5072851;28;20132;-67
2022/05/21 03:58:50;;;;;;;24.75;13.77;;;18.30;99.90;;;;;;5074140;28;20044;-67
2022/05/21 04:01:16;;;;;;;21.92;14.32;;;18.30;99.90;;;;;;5079261;28;20062;-67
2022/05/21 04:03:42;;;;;;;26.80;13.07;;;18.20;99.90;;;;;;5079052;28;20111;-67
2022/05/21 04:06:07;;;;;;;23.52;11.57;;;18.20;99.90;;;;;;5079378;28;20094;-67
2022/05/21 04:08:34;;;;;;;18.90;13.15;;;18.10;99.90;;;;;;5079542;28;20040;-67
2022/05/21 04:10:59;;;;;;;19.15;12.25;;;18.10;99.90;;;;;;5079415;28;20120;-67
2022/05/21 04:13:28;;;;;;;17.13;10.95;;;18.10;99.90;;;;;;5079401;28;20120;-67
2022/05/21 04:15:54;;;;;;;15.00;10.50;;;18.00;99.90;;;;;;5079389;28;20051;-67
2022/05/21 04:18:20;;;;;;;16.02;10.35;;;18.00;99.90;;;;;;5079270;28;20044;-67
2022/05/21 04:20:46;;;;;;;18.25;11.18;;;18.00;99.90;;;;;;5079263;28;20101;-67
2022/05/21 04:23:12;;;;;;;16.35;9.65;;;18.10;99.90;;;;;;5078980;28;20047;-67
2022/05/21 04:25:38;;;;;;;18.45;10.70;;;17.90;99.90;;;;;;5079058;28;20505;-67
2022/05/21 04:28:05;;;;;;;19.33;10.40;;;17.80;99.90;;;;;;5078780;28;20128;-67
2022/05/21 04:30:31;;;;;;;16.52;9.43;;;17.80;99.90;;;;;;5078896;28;20044;-67
2022/05/21 04:32:58;;;;;;;19.17;9.43;;;17.80;99.90;;;;;;5078950;28;20051;-67
2022/05/21 04:36:17;;;;;;;12.38;9.23;;;17.70;99.90;;;;;;5079066;28;20119;-67
2022/05/21 04:38:13;;;;;;;16.25;9.23;;;17.70;99.90;;;;;;5078863;28;20053;-67
2022/05/21 04:40:38;;;;;;;10.63;7.85;;;17.70;99.90;;;;;;5079028;28;20037;-67
2022/05/21 04:43:04;;;;;;;13.95;7.57;;;17.60;99.90;;;;;;5078868;28;20105;-67
2022/05/21 04:45:30;;;;;;;13.63;8.52;;;17.60;99.90;;;;;;5076647;28;20131;-67
2022/05/21 04:47:56;;;;;;;13.32;7.47;;;17.60;99.90;;;;;;5076444;28;20047;-67
2022/05/21 04:50:22;;;;;;;11.65;7.35;;;17.60;99.90;;;;;;5077994;28;20151;-67
2022/05/21 04:52:47;;;;;;;12.27;6.75;;;17.60;99.90;;;;;;5078404;28;20048;-67
2022/05/21 04:55:13;;;;;;;15.18;7.07;;;17.60;99.90;;;;;;5078974;28;20377;-67
2022/05/21 04:57:39;;;;;;;10.60;6.80;;;17.60;99.90;;;;;;5078894;28;20052;-66
2022/05/21 05:00:06;;;;;;;14.75;6.53;;;17.60;99.90;;;;;;5078883;28;20515;-66
2022/05/21 05:02:32;;;;;;;12.18;6.90;;;17.60;99.90;;;;;;5058491;28;20045;-66
2022/05/21 05:04:58;;;;;;;17.40;7.32;;;17.70;99.90;;;;;;5058577;28;20555;-66
2022/05/21 05:07:24;;;;;;;16.80;7.22;;;17.60;99.90;;;;;;5058756;28;20045;-66
2022/05/21 05:09:51;;;;;;;12.55;6.70;;;17.60;99.90;;;;;;5067711;28;20032;-66
2022/05/21 05:12:17;;;;;;;11.95;6.53;;;17.60;99.90;;;;;;5074996;28;20527;-66
2022/05/21 05:14:43;;;;;;;13.82;6.22;;;17.60;99.90;;;;;;5075584;28;20037;-66
2022/05/21 05:17:12;;;;;;;14.85;7.43;;;17.60;99.90;;;;;;5073182;28;20053;-66
2022/05/21 05:19:38;;;;;;;15.55;6.53;;;17.60;99.90;;;;;;5061224;28;20045;-66
2022/05/21 05:22:05;;;;;;;12.88;6.53;;;17.60;99.90;;;;;;5055314;28;20132;-66
2022/05/21 05:24:30;;;;;;;9.82;6.43;;;17.70;99.90;;;;;;5055195;28;20119;-66
2022/05/21 05:26:56;;;;;;;15.02;5.50;;;17.70;99.90;;;;;;5055359;28;20133;-67
2022/05/21 05:29:22;;;;;;;9.88;5.57;;;17.80;99.90;;;;;;5055547;28;20064;-66
2022/05/21 05:31:48;;;;;;;5.80;4.78;;;17.80;99.90;;;;;;5068393;28;20033;-66
2022/05/21 05:34:14;;;;;;;8.30;5.32;;;17.80;99.90;;;;;;5074668;28;20490;-67
2022/05/21 05:36:40;;;;;;;15.60;6.10;;;17.80;99.90;;;;;;5074121;28;20175;-68
2022/05/21 05:39:06;;;;;;;12.35;5.07;;;17.90;99.90;;;;;;5074142;28;20173;-68
2022/05/21 05:41:32;;;;;;;11.50;5.22;;;17.90;99.90;;;;;;5074404;28;20527;-68
2022/05/21 05:43:58;;;;;;;7.15;4.60;;;18.00;99.90;;;;;;5075081;28;20037;-68
2022/05/21 05:46:24;;;;;;;8.40;4.63;;;18.00;99.90;;;;;;5082257;28;20125;-68
2022/05/21 05:48:50;;;;;;;5.95;4.18;;;18.00;99.90;;;;;;5082411;28;20044;-68
2022/05/21 05:51:17;;;;;;;9.77;4.65;;;18.10;99.90;;;;;;5079414;28;20052;-68
2022/05/21 05:53:44;;;;;;;11.18;5.32;;;18.10;99.90;;;;;;5094758;28;20036;-68
2022/05/21 05:56:10;;;;;;;9.00;4.60;;;18.20;99.90;;;;;;5094331;28;20574;-68
2022/05/21 06:01:22;;;;;;;7.75;4.95;;;18.30;99.90;;;;;;5094359;28;20043;-68
2022/05/21 06:03:49;;;;;;;14.73;5.25;;;18.40;99.90;;;;;;5093255;28;20193;-68
2022/05/21 06:06:16;;;;;;;11.70;4.50;;;18.40;99.90;;;;;;5094960;28;20119;-68
2022/05/21 06:08:43;;;;;;;7.88;5.07;;;18.40;99.90;;;;;;5094930;28;20036;-68
2022/05/21 06:11:13;;;;;;;9.13;4.82;;;18.40;99.90;;;;;;5094949;28;20048;-68
2022/05/21 06:13:39;;;;;;;7.80;4.23;;;18.50;99.90;;;;;;5093559;28;20036;-68
2022/05/21 06:16:05;;;;;;;8.48;4.43;;;18.70;99.90;;;;;;5094779;28;20622;-68
2022/05/21 06:18:31;;;;;;;10.45;4.65;;;18.70;99.90;;;;;;5094672;28;20079;-68
2022/05/21 06:21:02;;;;;;;9.63;4.75;;;18.80;99.90;;;;;;5094721;28;20067;-68
2022/05/21 06:23:27;;;;;;;11.25;5.30;;;18.70;99.90;;;;;;5093545;28;20121;-68
2022/05/21 06:25:54;;;;;;;9.55;4.40;;;19.00;99.90;;;;;;5094559;28;20483;-68
2022/05/21 06:28:20;;;;;;;9.73;4.25;;;18.90;99.90;;;;;;5094500;28;20089;-68
2022/05/21 06:30:46;;;;;;;10.00;5.28;;;19.10;99.90;;;;;;5094458;28;20749;-68
2022/05/21 06:33:18;;;;;;;9.13;4.32;;;19.20;99.90;;;;;;5094445;28;20044;-68
2022/05/21 06:35:48;;;;;;;9.30;4.40;;;19.30;99.90;;;;;;5094454;28;20495;-68
2022/05/21 06:38:15;;;;;;;10.52;4.80;;;19.30;99.90;;;;;;5094192;28;20056;-68
2022/05/21 06:40:40;;;;;;;7.68;4.10;;;19.50;99.90;;;;;;5094203;28;20036;-68
2022/05/21 06:43:07;;;;;;;8.88;4.70;;;19.60;99.90;;;;;;5094328;28;20827;-68
2022/05/21 06:45:34;;;;;;;10.98;4.72;;;19.60;99.90;;;;;;5088368;28;20093;-69
2022/05/21 06:48:02;;;;;;;14.02;5.00;;;19.80;99.90;;;;;;5074129;28;20044;-68
2022/05/21 06:50:28;;;;;;;7.35;4.25;;;19.90;99.90;;;;;;5073926;28;20037;-68
2022/05/21 06:52:54;;;;;;;12.88;4.22;;;19.90;99.90;;;;;;5073604;28;20055;-69
2022/05/21 06:55:21;;;;;;;10.27;4.13;;;19.80;99.90;;;;;;5072326;28;20557;-68
2022/05/21 06:57:48;;;;;;;10.75;4.60;;;19.90;99.90;;;;;;5073637;28;20051;-69
2022/05/21 07:00:15;;;;;;;12.48;4.28;;;20.10;99.90;;;;;;5071867;28;20407;-68
2022/05/21 07:02:41;;;;;;;8.63;4.13;;;20.40;99.90;;;;;;5071568;28;20127;-68
2022/05/21 07:07:52;;;;;;;10.43;4.80;;;20.70;99.90;;;;;;5073974;28;20047;-68
2022/05/21 07:10:21;;;;;;;9.93;3.70;;;20.70;99.90;;;;;;5091060;28;20036;-67
2022/05/21 07:12:49;;;;;;;10.82;4.50;;;20.90;99.90;;;;;;5089786;28;20151;-66
2022/05/21 07:15:15;;;;;;;6.82;4.00;;;20.80;99.90;;;;;;5086034;28;20032;-67
2022/05/21 07:17:42;;;;;;;6.85;3.65;;;21.00;99.90;;;;;;5073052;28;20106;-67
2022/05/21 07:20:11;;;;;;;6.72;4.22;;;21.00;99.90;;;;;;5064857;28;20075;-68
2022/05/21 07:22:42;;;;;;;7.38;4.30;;;20.90;99.90;;;;;;5070095;28;20059;-67
2022/05/21 07:25:09;;;;;;;;;;;20.90;99.90;;;;;;5073493;28;20074;-67
2022/05/21 07:27:35;;;;;;;6.57;3.65;;;21.20;99.90;;;;;;5081781;28;19919;-68
2022/05/21 07:30:01;;;;;;;7.97;4.47;;;21.50;99.90;;;;;;5084611;28;20123;-69
2022/05/21 07:32:27;;;;;;;8.93;4.30;;;21.10;99.90;;;;;;5071290;28;20131;-68
2022/05/21 07:34:58;;;;;;;5.57;3.65;;;20.80;99.90;;;;;;5069539;28;20090;-68
2022/05/21 07:37:26;;;;;;;7.60;4.50;;;21.30;99.90;;;;;;5070081;28;20051;-68
2022/05/21 07:39:52;;;;;;;8.40;4.22;;;21.30;99.90;;;;;;5086672;28;20040;-69
2022/05/21 07:42:18;;;;;;;8.45;4.65;;;21.10;99.90;;;;;;5090338;28;20097;-68
2022/05/21 07:44:44;;;;;;;7.85;4.60;;;21.70;99.90;;;;;;5090660;28;20044;-68
2022/05/21 07:47:22;;;;;;;7.57;4.63;;;21.60;99.90;;;;;;5090853;28;20036;-67
2022/05/21 07:49:56;;;;;;;8.05;3.67;;;21.70;99.90;;;;;;5083273;28;20051;-66
2022/05/21 07:52:29;;;;;;;11.38;4.25;;;21.70;99.90;;;;;;5083549;28;20047;-66
2022/05/21 07:55:02;;;;;;;6.80;4.40;;;22.10;99.90;;;;;;5089508;28;20104;-66
2022/05/21 07:57:35;;;;;;;9.73;3.75;;;22.50;99.90;;;;;;5073236;28;20056;-68
2022/05/21 08:00:07;;;;;;;9.98;4.30;;;22.40;99.90;;;;;;5087774;28;20094;-67
2022/05/21 08:02:33;;;;;;;6.78;3.95;;;23.20;99.90;;;;;;5089340;28;20063;-67
2022/05/21 08:05:00;;;;;;;10.27;4.32;;;23.00;99.90;;;;;;5090476;28;20399;-69
2022/05/21 08:07:26;;;;;;;7.40;4.60;;;22.60;99.90;;;;;;5090310;28;20093;-68
2022/05/21 08:09:52;;;;;;;10.55;4.30;;;23.30;99.90;;;;;;5082805;28;20071;-68
2022/05/21 08:12:18;;;;;;;6.22;3.50;;;23.10;99.90;;;;;;5070284;28;20496;-68
2022/05/21 08:14:44;;;;;;;8.57;4.47;;;23.00;99.90;;;;;;5071374;28;20047;-67
2022/05/21 08:17:11;;;;;;;13.27;4.85;;;23.10;99.90;;;;;;5087499;28;20080;-67
2022/05/21 08:19:37;;;;;;;11.30;5.53;;;23.20;99.90;;;;;;5090385;28;20119;-67
2022/05/21 08:27:33;;;;;;;8.82;4.63;;;22.60;99.90;;;;;;5088880;28;20052;-67
2022/05/21 08:29:59;;;;;;;11.65;5.22;;;23.00;99.90;;;;;;5088954;28;20043;-68
2022/05/21 08:32:25;;;;;;;7.60;4.47;;;23.40;99.90;;;;;;5090325;28;20054;-67
2022/05/21 08:34:52;;;;;;;11.77;3.97;;;24.50;99.90;;;;;;5092503;28;20032;-68
2022/05/21 08:37:20;;;;;;;10.32;4.20;;;24.40;99.90;;;;;;5092404;28;20131;-67
2022/05/21 08:39:47;;;;;;;7.88;4.13;;;23.90;99.90;;;;;;5092553;28;20048;-68
2022/05/21 08:42:34;;;;;;;14.65;4.95;;;24.00;99.90;;;;;;5092475;28;20044;-68
2022/05/21 08:45:21;;;;;;;11.73;5.05;;;23.60;99.90;;;;;;5092367;28;20120;-68
2022/05/21 08:48:09;;;;;;;8.90;5.07;;;23.30;99.90;;;;;;5072464;28;20167;-68
2022/05/21 08:50:40;;;;;;;12.70;5.53;;;23.50;99.90;;;;;;5065033;28;20029;-68
2022/05/21 08:53:16;;;;;;;9.27;5.57;;;23.80;99.90;;;;;;5072842;28;20415;-67
2022/05/21 08:55:56;;;;;;;7.68;4.70;;;23.80;99.90;;;;;;5072307;28;20048;-67
2022/05/21 08:58:35;;;;;;;;;;;24.10;99.90;;;;;;5074049;28;20135;-67
2022/05/21 09:01:01;;;;;;;11.45;5.50;;;23.70;99.90;;;;;;5073671;28;20010;-70
2022/05/21 09:03:29;;;;;;;10.43;4.80;;;24.50;99.90;;;;;;5074253;28;20135;-67
2022/05/21 09:05:58;;;;;;;9.75;6.10;;;24.50;99.90;;;;;;5093630;28;20048;-67
2022/05/21 09:08:52;;;;;;;13.65;5.57;;;24.90;99.90;;;;;;5078984;28;20151;-68
2022/05/21 09:11:49;;;;;;;9.18;5.50;;;24.50;99.90;;;;;;5077286;28;20051;-68
2022/05/21 09:14:36;;;;;;;10.68;6.55;;;24.90;99.90;;;;;;5070924;28;20044;-67
2022/05/21 09:17:12;;;;;;;11.77;6.03;;;23.90;99.90;;;;;;5070474;28;20048;-68
2022/05/21 09:19:47;;;;;;;12.23;5.72;;;24.00;99.90;;;;;;5079156;28;20040;-67
2022/05/21 09:22:16;;;;;;;11.38;6.43;;;25.00;99.90;;;;;;5074844;28;20086;-67
2022/05/21 09:24:50;;;;;;;8.47;5.10;;;25.00;99.90;;;;;;5106506;28;20404;-67
2022/05/21 09:27:27;;;;;;;10.95;5.47;;;25.00;99.90;;;;;;5072638;28;20064;-67
2022/05/21 09:30:35;;;;;;;10.48;6.07;;;25.70;99.90;;;;;;5070493;28;20044;-67
2022/05/21 09:33:23;;;;;;;11.02;6.03;;;24.40;99.90;;;;;;5038848;28;20029;-67
2022/05/21 09:35:58;;;;;;;10.70;5.63;;;25.40;99.90;;;;;;5038147;28;20047;-67
2022/05/21 09:38:30;;;;;;;13.45;6.20;;;25.80;99.90;;;;;;5082588;28;20048;-67
2022/05/21 09:41:12;;;;;;;11.80;5.28;;;24.50;99.90;;;;;;5075923;28;20056;-67
2022/05/21 09:47:07;;;;;;;11.93;6.10;;;25.20;99.90;;;;;;5084425;28;20109;-67
2022/05/21 09:49:34;;;;;;;16.45;6.13;;;25.00;99.90;;;;;;5067519;28;20036;-66
2022/05/21 09:52:20;;;;;;;14.82;6.97;;;24.60;99.90;;;;;;5059634;28;20056;-67
2022/05/21 09:54:47;;;;;;;8.93;5.78;;;24.50;99.90;;;;;;5056750;28;20048;-67
2022/05/21 09:57:34;;;;;;;7.63;5.50;;;25.00;99.90;;;;;;5052590;28;20049;-66
2022/05/21 10:00:32;;;;;;;10.68;5.18;;;25.40;99.90;;;;;;5053543;28;20093;-66
2022/05/21 10:03:01;;;;;;;14.52;5.88;;;25.80;99.90;;;;;;5060517;28;20041;-67
2022/05/21 10:05:45;;;;;;;10.18;5.80;;;24.60;99.90;;;;;;5060502;28;20049;-67
2022/05/21 10:11:36;;;;;;;14.63;5.55;;;25.60;99.90;;;;;;5070701;28;20134;-66
2022/05/21 10:14:34;;;;;;;13.75;6.60;;;26.00;99.90;;;;;;5063114;27;20048;-66
2022/05/21 10:17:08;;;;;;;12.48;5.90;;;25.90;99.90;;;;;;5064187;28;20204;-67
2022/05/21 10:20:09;;;;;;;15.85;7.20;;;25.90;99.90;;;;;;5071986;28;20044;-67
2022/05/21 10:23:01;;;;;;;13.20;6.28;;;26.00;99.90;;;;;;5071021;28;20127;-66
2022/05/21 10:25:41;;;;;;;10.35;5.78;;;26.20;99.90;;;;;;5071644;28;20522;-67
2022/05/21 10:28:13;;;;;;;10.82;6.32;;;26.90;99.90;;;;;;5073144;28;20079;-68
2022/05/21 10:30:48;;;;;;;8.68;5.97;;;26.40;99.90;;;;;;5073845;28;20395;-67
2022/05/21 10:33:23;;;;;;;12.48;6.05;;;26.30;99.90;;;;;;5072334;28;20402;-67
2022/05/21 10:35:59;;;;;;;12.23;6.35;;;26.40;99.90;;;;;;5070591;28;20702;-68
2022/05/21 10:38:25;;;;;;;9.35;5.60;;;26.30;99.90;;;;;;5071880;28;20087;-67
2022/05/21 10:41:02;;;;;;;11.60;5.95;;;26.50;99.90;;;;;;5071583;28;20396;-67
2022/05/21 10:43:57;;;;;;;10.80;5.88;;;26.40;99.90;;;;;;5071238;28;20089;-67
2022/05/21 10:46:51;;;;;;;20.20;6.30;;;26.70;99.90;;;;;;5073204;28;20397;-67
2022/05/21 10:49:44;;;;;;;9.60;5.82;;;26.60;99.90;;;;;;5073611;28;20076;-67
2022/05/21 10:52:34;;;;;;;15.75;5.90;;;26.80;99.90;;;;;;5072628;28;20045;-67
2022/05/21 10:55:09;;;;;;;12.93;5.95;;;27.10;99.90;;;;;;5071859;28;20625;-67
2022/05/21 10:58:08;;;;;;;12.90;5.80;;;26.80;99.40;;;;;;5071746;28;20076;-67
2022/05/21 11:00:59;;;;;;;8.13;5.75;;;26.40;99.90;;;;;;5071809;28;20480;-67
2022/05/21 11:03:49;;;;;;;12.73;6.55;;;26.70;99.90;;;;;;5071304;28;20114;-67
2022/05/21 11:06:32;;;;;;;11.43;5.68;;;27.10;99.90;;;;;;5071445;28;20503;-67
2022/05/21 11:09:33;;;;;;;11.75;6.50;;;26.90;99.90;;;;;;5070753;28;20086;-68
2022/05/21 11:12:08;;;;;;;13.05;6.60;;;27.00;99.90;;;;;;5038994;28;20119;-67
2022/05/21 11:14:40;;;;;;;10.93;6.25;;;27.40;99.90;;;;;;5071719;28;20076;-67
2022/05/21 11:17:27;;;;;;;12.27;5.82;;;27.60;99.60;;;;;;5071924;28;20040;-67
2022/05/21 11:20:16;;;;;;;14.20;6.05;;;27.60;99.20;;;;;;5071197;28;20086;-67
2022/05/21 11:23:15;;;;;;;11.30;6.33;;;27.60;99.20;;;;;;5071373;28;20041;-67
2022/05/21 11:25:55;;;;;;;12.95;6.03;;;27.70;99.00;;;;;;5072043;28;20132;-67
2022/05/21 11:28:44;;;;;;;13.10;5.60;;;27.30;98.40;;;;;;5071556;28;20561;-67
2022/05/21 11:39:48;;;;;;;9.38;5.32;;;28.10;98.60;;;;;;5073073;28;20053;-68
2022/05/21 11:42:16;;;;;;;19.67;6.13;;;27.80;99.20;;;;;;5072054;28;20496;-67
2022/05/21 11:45:12;;;;;;;10.88;6.82;;;28.00;98.60;;;;;;5071058;28;20051;-67
2022/05/21 11:47:43;;;;;;;9.38;5.40;;;27.90;97.80;;;;;;5071470;28;20499;-67
2022/05/21 11:50:20;;;;;;;19.13;6.20;;;27.80;98.90;;;;;;5071309;28;20036;-67
2022/05/21 11:52:53;;;;;;;12.70;6.35;;;28.10;99.20;;;;;;5070993;28;20089;-68
2022/05/21 11:55:23;;;;;;;15.32;5.47;;;28.20;97.80;;;;;;5071228;28;20495;-67
2022/05/21 11:57:53;;;;;;;14.88;5.70;;;28.30;98.70;;;;;;5070227;28;20084;-68
2022/05/21 12:00:22;;;;;;;16.65;5.60;;;28.70;98.20;;;;;;5071068;28;20052;-67
2022/05/21 12:02:54;;;;;;;11.55;5.68;;;29.00;97.00;;;;;;5070955;28;20476;-67
2022/05/21 12:05:41;;;;;;;11.02;5.72;;;28.90;96.40;;;;;;5070847;28;20037;-67
2022/05/21 12:08:15;;;;;;;10.30;5.88;;;28.70;97.20;;;;;;5066577;28;20558;-67
2022/05/21 12:11:10;;;;;;;12.90;5.85;;;28.30;98.00;;;;;;5072565;28;20434;-70
2022/05/21 12:13:38;;;;;;;13.73;6.13;;;28.50;97.90;;;;;;5072665;28;20044;-67
2022/05/21 12:16:16;;;;;;;13.60;6.35;;;28.40;98.10;;;;;;5072479;28;20068;-68
2022/05/21 12:18:44;;;;;;;7.07;5.05;;;28.30;97.20;;;;;;5072673;28;20048;-68
2022/05/21 12:21:35;;;;;;;12.80;5.72;;;28.00;97.60;;;;;;5075801;28;20036;-68
2022/05/21 12:24:08;;;;;;;9.32;5.30;;;28.00;99.90;;;;;;5047705;28;20036;-67
2022/05/21 12:26:39;;;;;;;16.92;6.68;;;27.90;98.00;;;;;;5076910;28;20648;-67
2022/05/21 12:29:12;;;;;;;9.38;5.25;;;28.30;97.80;;;;;;5076656;28;20052;-68
2022/05/21 12:31:44;;;;;;;11.40;5.57;;;28.10;97.10;;;;;;5076766;28;20522;-67
2022/05/21 12:34:56;;;;;;;11.35;5.80;;;28.20;96.40;;;;;;5076740;28;20168;-67
2022/05/21 12:37:32;;;;;;;12.85;5.47;;;28.10;95.90;;;;;;5042261;28;20511;-68
2022/05/21 12:40:17;;;;;;;9.15;5.47;;;28.00;96.30;;;;;;5076416;28;20051;-67
2022/05/21 12:42:57;;;;;;;8.07;5.32;;;28.10;97.70;;;;;;5076682;28;20064;-67
2022/05/21 12:45:42;;;;;;;12.95;6.32;;;28.10;96.80;;;;;;5076475;28;20550;-67
2022/05/21 12:48:37;;;;;;;12.25;5.30;;;28.20;96.80;;;;;;5076344;28;20044;-67
2022/05/21 12:51:06;;;;;;;11.10;5.38;;;28.10;96.70;;;;;;5076249;28;20082;-68
2022/05/21 12:53:41;;;;;;;10.73;5.95;;;28.20;96.60;;;;;;5076269;28;20561;-69
2022/05/21 12:56:33;;;;;;;10.23;5.50;;;28.30;96.00;;;;;;5076091;28;20033;-69
2022/05/21 12:59:23;;;;;;;10.70;6.47;;;28.00;96.70;;;;;;5076105;28;20052;-67
2022/05/21 13:01:59;;;;;;;11.80;6.30;;;28.20;96.40;;;;;;5074813;28;20139;-67
2022/05/21 13:04:38;;;;;;;13.68;6.82;;;28.20;96.80;;;;;;5075971;28;21079;-67
2022/05/21 13:07:10;;;;;;;16.10;6.28;;;27.80;96.30;;;;;;5076044;28;20117;-69
2022/05/21 13:09:38;;;;;;;14.13;6.13;;;27.80;96.80;;;;;;5075899;28;20043;-67
2022/05/21 13:12:06;;;;;;;9.88;5.80;;;28.10;96.80;;;;;;5075938;28;20122;-68
2022/05/21 13:14:36;;;;;;;9.73;5.88;;;27.80;96.20;;;;;;5075841;28;20076;-70
2022/05/21 13:17:02;;;;;;;8.38;5.00;;;27.80;96.30;;;;;;5075782;28;20045;-69
2022/05/21 13:19:47;;;;;;;11.07;5.75;;;28.20;96.90;;;;;;5075836;28;20048;-67
2022/05/21 13:22:24;;;;;;;12.13;6.22;;;28.10;96.00;;;;;;5074414;28;20051;-67
2022/05/21 13:25:06;;;;;;;11.60;6.53;;;28.20;96.70;;;;;;5075542;28;20043;-67
2022/05/21 13:27:54;;;;;;;13.18;6.40;;;28.10;96.10;;;;;;5072575;28;20051;-67
2022/05/21 13:30:32;;;;;;;17.77;6.28;;;27.90;96.50;;;;;;5074067;28;20169;-68
2022/05/21 13:33:00;;;;;;;10.77;5.57;;;27.80;96.60;;;;;;5074832;28;20048;-67
2022/05/21 13:35:35;;;;;;;15.18;6.60;;;28.10;96.60;;;;;;5075130;28;20194;-67
2022/05/21 13:38:03;;;;;;;11.07;6.65;;;28.00;96.20;;;;;;5075304;28;20052;-67
2022/05/21 13:40:51;;;;;;;17.13;6.03;;;27.70;96.10;;;;;;5075039;28;20068;-67